createdAt,value
2022-10-06T00:01:58.249Z,10.23
2022-10-06T00:04:28.540Z,9.40
2022-10-06T00:07:00.413Z,8.55
2022-10-06T00:09:30.539Z,9.13
2022-10-06T00:12:03.408Z,9.95
2022-10-06T00:14:37.766Z,9.68
2022-10-06T00:17:06.805Z,9.32
2022-10-06T00:19:39.809Z,8.95
2022-10-06T00:22:09.655Z,8.38
2022-10-06T00:24:38.944Z,8.63
2022-10-06T00:27:08.801Z,9.93
2022-10-06T00:29:42.467Z,9.15
2022-10-06T00:32:12.030Z,8.07
2022-10-06T00:34:43.373Z,7.85
2022-10-06T00:37:15.128Z,8.05
2022-10-06T00:39:46.748Z,9.25
2022-10-06T00:42:28.781Z,8.82
2022-10-06T00:44:59.597Z,9.05
2022-10-06T00:47:35.196Z,8.73
2022-10-06T00:50:10.866Z,8.70
2022-10-06T00:52:44.310Z,9.00
2022-10-06T00:55:15.671Z,8.05
2022-10-06T00:57:50.243Z,8.80
2022-10-06T01:00:24.341Z,8.32
2022-10-06T01:02:58.861Z,8.77
2022-10-06T01:05:33.362Z,8.48
2022-10-06T01:08:05.516Z,12.82
2022-10-06T01:10:36.629Z,11.63
2022-10-06T01:13:08.059Z,11.55
2022-10-06T01:15:40.441Z,9.52
2022-10-06T01:18:14.931Z,9.73
2022-10-06T01:20:51.828Z,12.57
2022-10-06T01:23:24.868Z,11.45
2022-10-06T01:25:56.863Z,9.45
2022-10-06T01:28:31.597Z,12.48
2022-10-06T01:31:04.656Z,11.85
2022-10-06T01:33:36.680Z,9.23
2022-10-06T01:36:13.586Z,10.07
2022-10-06T01:38:46.741Z,12.77
2022-10-06T01:41:19.383Z,9.82
2022-10-06T01:43:52.748Z,10.45
2022-10-06T01:46:26.972Z,9.18
2022-10-06T01:48:59.108Z,9.48
2022-10-06T01:51:31.214Z,8.63
2022-10-06T01:54:04.818Z,8.75
2022-10-06T01:56:36.960Z,8.88
2022-10-06T01:59:10.579Z,8.70
2022-10-06T02:01:42.805Z,9.52
2022-10-06T02:04:15.410Z,9.52
2022-10-06T02:06:47.583Z,8.73
2022-10-06T02:09:21.217Z,9.35
2022-10-06T02:11:56.198Z,10.35
2022-10-06T02:14:31.828Z,8.68
2022-10-06T02:17:03.818Z,9.40
2022-10-06T02:19:39.075Z,9.52
2022-10-06T02:22:10.515Z,9.13
2022-10-06T02:24:46.493Z,8.05
2022-10-06T02:27:21.685Z,8.63
2022-10-06T02:29:59.642Z,7.73
2022-10-06T02:32:36.820Z,8.88
2022-10-06T02:35:06.840Z,8.02
2022-10-06T02:37:37.222Z,9.32
2022-10-06T02:40:11.453Z,8.35
2022-10-06T02:42:42.788Z,8.57
2022-10-06T02:45:14.002Z,8.95
2022-10-06T02:47:44.711Z,9.07
2022-10-06T02:50:15.730Z,9.55
2022-10-06T02:52:46.088Z,8.45
2022-10-06T02:55:18.528Z,10.75
2022-10-06T02:57:48.608Z,8.85
2022-10-06T03:00:18.742Z,9.38
2022-10-06T03:02:54.125Z,8.70
2022-10-06T03:05:24.172Z,8.50
2022-10-06T03:07:54.541Z,10.15
2022-10-06T03:10:28.833Z,14.20
2022-10-06T03:13:00.627Z,9.52
2022-10-06T03:15:33.244Z,10.02
2022-10-06T03:18:03.534Z,8.75
2022-10-06T03:20:34.289Z,9.40
2022-10-06T03:23:04.827Z,9.90
2022-10-06T03:25:36.064Z,11.05
2022-10-06T03:28:06.524Z,8.93
2022-10-06T03:30:36.799Z,8.73
2022-10-06T03:33:07.649Z,8.68
2022-10-06T03:35:45.138Z,9.15
2022-10-06T03:38:15.542Z,8.40
2022-10-06T03:40:47.128Z,9.05
2022-10-06T03:43:24.268Z,8.47
2022-10-06T03:46:01.120Z,8.75
2022-10-06T03:48:33.489Z,9.30
2022-10-06T03:51:04.774Z,9.13
2022-10-06T03:53:37.885Z,9.57
2022-10-06T03:56:14.688Z,8.77
2022-10-06T03:58:48.041Z,10.40
2022-10-06T04:01:23.481Z,9.85
2022-10-06T04:03:58.483Z,9.10
2022-10-06T04:06:31.545Z,9.32
2022-10-06T04:09:04.035Z,8.20
2022-10-06T04:11:37.769Z,9.52
2022-10-06T04:14:09.454Z,10.13
2022-10-06T04:16:40.595Z,9.18
2022-10-06T04:19:13.540Z,9.23
2022-10-06T04:21:53.497Z,8.55
2022-10-06T04:24:28.074Z,8.77
2022-10-06T04:27:21.336Z,9.50
2022-10-06T04:29:58.087Z,9.10
2022-10-06T04:32:29.874Z,9.35
2022-10-06T04:35:00.004Z,9.82
2022-10-06T04:37:32.583Z,10.07
2022-10-06T04:40:03.387Z,10.00
2022-10-06T04:42:39.227Z,21.90
2022-10-06T04:45:13.853Z,42.08
2022-10-06T04:47:45.441Z,9.55
2022-10-06T04:50:15.590Z,10.68
2022-10-06T04:53:09.097Z,9.32
2022-10-06T04:55:51.890Z,14.65
2022-10-06T04:58:23.715Z,9.95
2022-10-06T05:00:56.314Z,10.02
2022-10-06T05:03:31.495Z,8.10
2022-10-06T05:06:09.467Z,9.15
2022-10-06T05:08:40.667Z,11.55
2022-10-06T05:11:15.173Z,9.32
2022-10-06T05:13:51.147Z,16.45
2022-10-06T05:16:25.894Z,9.85
2022-10-06T05:19:01.790Z,9.15
2022-10-06T05:21:36.104Z,9.38
2022-10-06T05:24:08.405Z,9.18
2022-10-06T05:26:41.607Z,10.00
2022-10-06T05:29:18.555Z,10.70
2022-10-06T05:31:49.742Z,9.55
2022-10-06T05:34:21.551Z,10.35
2022-10-06T05:36:52.226Z,10.88
2022-10-06T05:39:29.201Z,9.45
2022-10-06T05:42:01.168Z,13.93
2022-10-06T05:44:34.910Z,10.52
2022-10-06T05:47:11.245Z,9.63
2022-10-06T05:49:41.270Z,9.35
2022-10-06T05:52:28.659Z,9.57
2022-10-06T05:54:58.832Z,9.15
2022-10-06T05:57:28.891Z,11.18
2022-10-06T06:00:00.110Z,11.02
2022-10-06T06:02:30.620Z,11.82
2022-10-06T06:05:01.051Z,11.60
2022-10-06T06:07:32.493Z,11.88
2022-10-06T06:10:02.874Z,11.90
2022-10-06T06:12:33.189Z,11.65
2022-10-06T06:15:52.885Z,10.07
2022-10-06T06:18:23.255Z,9.57
2022-10-06T06:20:58.641Z,9.40
2022-10-06T06:23:33.430Z,9.30
2022-10-06T06:26:04.403Z,9.07
2022-10-06T06:28:37.365Z,9.25
2022-10-06T06:31:08.766Z,9.07
2022-10-06T06:33:40.472Z,9.32
2022-10-06T06:36:17.432Z,10.43
2022-10-06T06:38:52.138Z,9.50
2022-10-06T06:41:24.466Z,9.95
2022-10-06T06:44:00.279Z,9.63
2022-10-06T06:46:38.845Z,9.25
2022-10-06T06:49:17.152Z,8.95
2022-10-06T06:51:54.737Z,9.15
2022-10-06T06:54:30.827Z,8.60
2022-10-06T06:57:10.078Z,9.38
2022-10-06T06:59:42.215Z,9.10
2022-10-06T07:02:15.938Z,9.15
2022-10-06T07:04:49.131Z,9.93
2022-10-06T07:07:23.880Z,9.45
2022-10-06T07:09:56.613Z,9.30
2022-10-06T07:12:28.448Z,9.35
2022-10-06T07:15:19.489Z,10.27
2022-10-06T07:18:11.695Z,9.27
2022-10-06T07:20:59.172Z,9.32
2022-10-06T07:23:47.632Z,8.70
2022-10-06T07:26:22.268Z,8.88
2022-10-06T07:28:54.599Z,8.68
2022-10-06T07:31:24.334Z,8.68
2022-10-06T07:33:54.532Z,9.35
2022-10-06T07:36:23.875Z,8.77
2022-10-06T07:38:53.712Z,9.60
2022-10-06T07:41:25.176Z,10.27
2022-10-06T07:44:00.253Z,8.48
2022-10-06T07:46:34.711Z,9.48
2022-10-06T07:49:19.176Z,9.32
2022-10-06T07:51:53.930Z,8.15
2022-10-06T07:54:27.399Z,9.07
2022-10-06T07:57:35.404Z,9.15
2022-10-06T08:00:07.810Z,8.27
2022-10-06T08:02:42.527Z,7.63
2022-10-06T08:05:12.853Z,9.25
2022-10-06T08:07:42.825Z,7.80
2022-10-06T08:10:12.856Z,10.23
2022-10-06T08:12:44.258Z,8.38
2022-10-06T08:15:16.776Z,9.63
2022-10-06T08:17:47.844Z,8.82
2022-10-06T08:20:19.177Z,8.68
2022-10-06T08:22:51.902Z,8.95
2022-10-06T08:25:20.976Z,9.57
2022-10-06T08:27:53.730Z,8.77
2022-10-06T08:30:27.344Z,9.20
2022-10-06T08:32:59.006Z,8.73
2022-10-06T08:35:30.808Z,8.38
2022-10-06T08:38:02.149Z,8.60
2022-10-06T08:40:33.753Z,9.48
2022-10-06T08:43:07.031Z,9.00
2022-10-06T08:45:40.272Z,9.40
2022-10-06T08:48:15.295Z,9.85
2022-10-06T08:50:52.189Z,9.35
2022-10-06T08:53:26.629Z,8.90
2022-10-06T08:55:58.929Z,9.85
2022-10-06T08:58:37.399Z,10.10
2022-10-06T09:01:16.060Z,9.40
2022-10-06T09:03:49.590Z,9.02
2022-10-06T09:06:26.941Z,9.18
2022-10-06T09:09:01.062Z,9.27
2022-10-06T09:11:48.587Z,9.52
2022-10-06T09:14:24.685Z,8.43
2022-10-06T09:17:00.904Z,9.35
2022-10-06T09:19:37.439Z,9.60
2022-10-06T09:22:07.780Z,10.05
2022-10-06T09:24:39.779Z,9.25
2022-10-06T09:27:21.706Z,9.30
2022-10-06T09:29:52.958Z,9.50
2022-10-06T09:32:24.989Z,9.00
2022-10-06T09:34:57.287Z,9.50
2022-10-06T09:37:26.318Z,9.25
2022-10-06T09:39:58.858Z,9.57
2022-10-06T09:42:29.824Z,9.63
2022-10-06T09:45:06.010Z,9.02
2022-10-06T09:47:46.119Z,8.80
2022-10-06T09:50:22.271Z,8.88
2022-10-06T09:53:16.467Z,8.98
2022-10-06T09:55:47.367Z,7.50
2022-10-06T09:58:24.965Z,7.28
2022-10-06T10:00:57.048Z,7.63
2022-10-06T10:03:27.491Z,7.88
2022-10-06T10:06:02.365Z,6.63
2022-10-06T10:11:30.635Z,5.93
2022-10-06T10:14:02.171Z,6.22
2022-10-06T10:16:35.718Z,5.75
2022-10-06T10:19:10.641Z,5.43
2022-10-06T10:21:42.233Z,5.43
2022-10-06T10:24:20.333Z,5.13
2022-10-06T10:26:54.931Z,5.32
2022-10-06T10:29:36.879Z,4.82
2022-10-06T10:32:16.096Z,4.55
2022-10-06T10:34:58.741Z,4.70
2022-10-06T10:37:32.953Z,3.97
2022-10-06T10:40:05.038Z,4.32
2022-10-06T10:42:37.620Z,4.90
2022-10-06T10:45:10.903Z,3.42
2022-10-06T10:47:45.990Z,3.75
2022-10-06T10:50:24.719Z,3.40
2022-10-06T10:52:56.072Z,3.08
2022-10-06T10:55:28.555Z,3.38
2022-10-06T10:57:59.593Z,2.50
2022-10-06T11:00:30.990Z,2.72
2022-10-06T11:03:03.838Z,1.90
2022-10-06T11:05:43.256Z,1.40
2022-10-06T11:08:19.315Z,1.58
2022-10-06T11:10:52.167Z,1.20
2022-10-06T11:13:25.292Z,1.30
2022-10-06T11:16:14.852Z,1.50
2022-10-06T11:18:51.689Z,1.48
2022-10-06T11:21:24.848Z,1.10
2022-10-06T11:23:58.700Z,0.82
2022-10-06T11:26:45.242Z,1.13
2022-10-06T11:29:23.733Z,1.02
2022-10-06T11:31:57.279Z,0.88
2022-10-06T11:34:27.740Z,0.80
2022-10-06T11:36:58.292Z,1.13
2022-10-06T11:39:29.949Z,1.27
2022-10-06T11:42:02.882Z,0.85
2022-10-06T11:44:34.883Z,0.80
2022-10-06T11:47:06.360Z,0.90
2022-10-06T11:49:57.567Z,1.30
2022-10-06T11:52:53.735Z,0.85
2022-10-06T11:55:24.146Z,0.60
2022-10-06T11:58:40.928Z,0.80
2022-10-06T12:01:03.839Z,0.88
2022-10-06T12:03:50.406Z,1.52
2022-10-06T12:06:58.867Z,0.85
2022-10-06T12:09:53.709Z,0.60
2022-10-06T12:13:01.815Z,0.70
2022-10-06T12:19:03.128Z,0.65
2022-10-06T12:21:45.867Z,0.70
2022-10-06T12:24:38.296Z,0.70
2022-10-06T12:27:39.988Z,0.90
2022-10-06T12:30:22.725Z,0.60
2022-10-06T12:32:54.840Z,0.70
2022-10-06T12:35:32.591Z,0.82
2022-10-06T12:38:05.086Z,0.80
2022-10-06T12:40:56.010Z,0.65
2022-10-06T12:43:35.928Z,0.80
2022-10-06T12:46:08.378Z,1.80
2022-10-06T12:48:42.529Z,0.70
2022-10-06T12:51:24.285Z,1.02
2022-10-06T12:54:04.035Z,0.75
2022-10-06T12:56:36.383Z,0.75
2022-10-06T12:59:25.191Z,0.90
2022-10-06T13:01:56.125Z,0.80
2022-10-06T13:04:37.907Z,0.90
2022-10-06T13:07:13.055Z,1.10
2022-10-06T13:09:41.946Z,0.70
2022-10-06T13:12:28.096Z,0.80
2022-10-06T13:15:29.813Z,0.90
2022-10-06T13:18:01.242Z,1.13
2022-10-06T13:20:41.751Z,0.98
2022-10-06T13:23:24.236Z,1.08
2022-10-06T13:25:56.960Z,0.98
2022-10-06T13:28:46.886Z,1.13
2022-10-06T13:31:22.003Z,0.80
2022-10-06T13:33:54.132Z,0.80
2022-10-06T13:36:23.807Z,0.80
2022-10-06T13:38:53.483Z,0.80
2022-10-06T13:41:28.267Z,1.10
2022-10-06T13:44:01.025Z,0.90
2022-10-06T13:46:31.906Z,1.20
2022-10-06T13:49:03.677Z,1.00
2022-10-06T13:51:34.212Z,1.10
2022-10-06T13:54:06.992Z,1.02
2022-10-06T13:56:38.982Z,1.00
2022-10-06T13:59:37.286Z,1.02
2022-10-06T14:02:26.872Z,0.83
2022-10-06T14:05:21.905Z,0.77
2022-10-06T14:07:51.912Z,0.80
2022-10-06T14:10:24.105Z,0.80
2022-10-06T14:12:52.897Z,0.60
2022-10-06T14:15:25.704Z,0.70
2022-10-06T14:17:57.041Z,0.60
2022-10-06T14:20:38.899Z,1.00
2022-10-06T14:23:43.354Z,0.63
2022-10-06T14:26:13.848Z,0.80
2022-10-06T14:28:47.311Z,1.30
2022-10-06T14:31:17.607Z,0.88
2022-10-06T14:33:47.924Z,1.05
2022-10-06T14:36:19.481Z,0.90
2022-10-06T14:38:49.428Z,0.80
2022-10-06T14:41:20.054Z,0.80
2022-10-06T14:43:49.371Z,0.77
2022-10-06T14:48:48.176Z,1.13
2022-10-06T14:51:17.827Z,0.90
2022-10-06T14:53:53.157Z,1.30
2022-10-06T14:56:22.920Z,1.00
2022-10-06T14:58:52.610Z,0.90
2022-10-06T15:01:25.503Z,1.02
2022-10-06T15:03:54.931Z,0.77
2022-10-06T15:09:10.495Z,0.95
2022-10-06T15:14:08.832Z,0.90
2022-10-06T15:16:42.495Z,0.70
2022-10-06T15:19:12.133Z,0.77
2022-10-06T15:21:41.445Z,1.08
2022-10-06T15:27:00.573Z,1.10
2022-10-06T15:29:30.858Z,1.30
2022-10-06T15:32:02.397Z,0.95
2022-10-06T15:34:33.886Z,1.10
2022-10-06T15:37:03.263Z,1.23
2022-10-06T15:39:32.799Z,1.02
2022-10-06T15:42:02.006Z,0.90
2022-10-06T15:44:34.749Z,1.38
2022-10-06T15:47:06.251Z,1.10
2022-10-06T15:49:41.057Z,1.30
2022-10-06T15:52:10.717Z,1.42
2022-10-06T15:54:41.467Z,0.98
2022-10-06T15:57:13.892Z,2.05
2022-10-06T15:59:45.482Z,1.10
2022-10-06T16:02:17.195Z,1.58
2022-10-06T16:04:57.804Z,1.30
2022-10-06T16:07:26.761Z,3.67
2022-10-06T16:09:55.615Z,1.10
2022-10-06T16:12:25.384Z,1.15
2022-10-06T16:14:54.479Z,2.30
2022-10-06T16:17:24.834Z,13.13
2022-10-06T16:19:53.771Z,1.20
2022-10-06T16:22:22.655Z,2.08
2022-10-06T16:24:51.884Z,1.40
2022-10-06T16:27:20.806Z,1.13
2022-10-06T16:29:49.574Z,1.38
2022-10-06T16:32:18.803Z,1.45
2022-10-06T16:34:50.808Z,1.23
2022-10-06T16:37:19.798Z,1.45
2022-10-06T16:39:48.798Z,1.23
2022-10-06T16:42:18.199Z,1.80
2022-10-06T16:44:47.073Z,1.52
2022-10-06T16:47:16.126Z,1.63
2022-10-06T16:49:45.061Z,1.80
2022-10-06T16:52:16.707Z,2.42
2022-10-06T16:54:45.661Z,1.38
2022-10-06T16:57:14.502Z,1.95
2022-10-06T16:59:46.896Z,1.40
2022-10-06T17:02:16.005Z,1.60
2022-10-06T17:04:44.897Z,8.40
2022-10-06T17:07:13.766Z,1.88
2022-10-06T17:10:01.515Z,2.63
2022-10-06T17:12:33.458Z,1.95
2022-10-06T17:15:02.332Z,2.92
2022-10-06T17:17:31.562Z,1.80
2022-10-06T17:20:00.520Z,1.88
2022-10-06T17:22:29.411Z,2.08
2022-10-06T17:25:00.610Z,1.98
2022-10-06T17:27:30.461Z,2.80
2022-10-06T17:29:59.410Z,1.88
2022-10-06T17:32:28.400Z,2.65
2022-10-06T17:34:57.311Z,2.80
2022-10-06T17:37:26.178Z,2.78
2022-10-06T17:39:55.082Z,2.28
2022-10-06T17:42:25.479Z,1.85
2022-10-06T17:44:54.464Z,3.05
2022-10-06T17:47:23.377Z,1.55
2022-10-06T17:49:52.285Z,1.88
2022-10-06T17:52:24.269Z,2.45
2022-10-06T17:54:54.582Z,1.58
2022-10-06T17:57:23.591Z,2.30
2022-10-06T17:59:53.906Z,1.42
2022-10-06T18:02:22.931Z,1.70
2022-10-06T18:04:52.688Z,1.88
2022-10-06T18:07:22.211Z,2.90
2022-10-06T18:10:04.911Z,3.00
2022-10-06T18:12:36.322Z,2.53
2022-10-06T18:15:07.073Z,2.60
2022-10-06T18:17:36.024Z,2.35
2022-10-06T18:20:05.571Z,2.15
2022-10-06T18:22:34.453Z,2.40
2022-10-06T18:25:03.378Z,2.60
2022-10-06T18:27:33.497Z,2.10
2022-10-06T18:30:02.461Z,2.42
2022-10-06T18:38:10.502Z,2.35
2022-10-06T18:40:39.293Z,1.80
2022-10-06T18:43:08.139Z,1.58
2022-10-06T18:45:54.671Z,1.95
2022-10-06T18:48:42.844Z,2.72
2022-10-06T18:51:12.046Z,2.15
2022-10-06T18:53:40.915Z,2.83
2022-10-06T18:56:10.931Z,2.00
2022-10-06T18:58:40.953Z,1.90
2022-10-06T19:01:10.456Z,2.35
2022-10-06T19:03:41.116Z,2.40
2022-10-06T19:06:10.061Z,2.13
2022-10-06T19:08:38.983Z,2.55
2022-10-06T19:11:29.002Z,2.72
2022-10-06T19:13:58.176Z,2.78
2022-10-06T19:16:27.069Z,2.30
2022-10-06T19:18:57.360Z,2.63
2022-10-06T19:21:26.312Z,3.10
2022-10-06T19:23:55.120Z,3.13
2022-10-06T19:26:24.015Z,2.35
2022-10-06T19:28:53.782Z,2.00
2022-10-06T19:31:22.951Z,2.55
2022-10-06T19:33:51.914Z,2.08
2022-10-06T19:36:22.277Z,3.10
2022-10-06T19:38:51.364Z,2.10
2022-10-06T19:41:37.863Z,1.92
2022-10-06T19:44:06.784Z,2.58
2022-10-06T19:46:37.581Z,2.70
2022-10-06T19:49:08.361Z,2.40
2022-10-06T19:51:41.426Z,3.17
2022-10-06T19:54:11.737Z,1.95
2022-10-06T19:56:41.850Z,1.83
2022-10-06T19:59:15.329Z,2.33
2022-10-06T20:01:44.240Z,2.63
2022-10-06T20:04:13.502Z,1.90
2022-10-06T20:06:44.140Z,2.20
2022-10-06T20:09:14.177Z,2.58
2022-10-06T20:11:44.371Z,1.80
2022-10-06T20:14:18.351Z,2.50
2022-10-06T20:16:50.834Z,2.10
2022-10-06T20:19:19.992Z,2.70
2022-10-06T20:21:50.649Z,2.25
2022-10-06T20:24:22.587Z,2.88
2022-10-06T20:26:52.039Z,2.53
2022-10-06T20:31:50.098Z,2.40
2022-10-06T20:34:19.982Z,2.10
2022-10-06T20:36:55.347Z,3.72
2022-10-06T20:39:42.971Z,2.17
2022-10-06T20:42:15.297Z,2.83
2022-10-06T20:44:44.787Z,2.95
2022-10-06T20:47:14.065Z,2.33
2022-10-06T20:49:43.308Z,4.22
2022-10-06T20:52:14.967Z,1.90
2022-10-06T20:54:44.303Z,2.53
2022-10-06T20:57:13.505Z,3.65
2022-10-06T20:59:42.441Z,2.72
2022-10-06T21:02:12.055Z,2.33
2022-10-06T21:04:43.712Z,2.15
2022-10-06T21:07:14.178Z,1.85
2022-10-06T21:09:43.348Z,2.60
2022-10-06T21:12:12.270Z,2.17
2022-10-06T21:14:42.507Z,2.40
2022-10-06T21:17:11.622Z,2.00
2022-10-06T21:19:40.503Z,1.80
2022-10-06T21:22:09.387Z,2.85
2022-10-06T21:24:39.746Z,2.00
2022-10-06T21:27:08.650Z,2.17
2022-10-06T21:29:37.599Z,2.30
2022-10-06T21:32:06.498Z,2.13
2022-10-06T21:34:35.398Z,2.35
2022-10-06T21:37:05.180Z,2.67
2022-10-06T21:39:34.069Z,2.28
2022-10-06T21:42:04.348Z,2.25
2022-10-06T21:44:35.130Z,2.35
2022-10-06T21:47:04.077Z,2.55
2022-10-06T21:49:33.001Z,3.00
2022-10-06T21:52:05.581Z,2.00
2022-10-06T21:54:37.953Z,3.30
2022-10-06T21:57:09.382Z,1.80
2022-10-06T21:59:38.270Z,2.45
2022-10-06T22:02:07.199Z,2.17
2022-10-06T22:04:36.282Z,2.08
2022-10-06T22:07:05.168Z,2.28
2022-10-06T22:09:34.003Z,2.53
2022-10-06T22:12:02.955Z,2.00
2022-10-06T22:14:33.203Z,2.80
2022-10-06T22:17:02.691Z,2.70
2022-10-06T22:22:00.123Z,2.53
2022-10-06T22:24:29.071Z,2.22
2022-10-06T22:26:58.985Z,3.15
2022-10-06T22:29:27.848Z,2.80
2022-10-06T22:31:58.896Z,2.38
2022-10-06T22:34:28.175Z,1.85
2022-10-06T22:36:57.052Z,2.33
2022-10-06T22:39:26.168Z,2.33
2022-10-06T22:41:55.073Z,2.35
2022-10-06T22:44:24.036Z,2.53
2022-10-06T22:46:53.001Z,2.83
2022-10-06T22:49:23.317Z,2.47
2022-10-06T22:51:52.141Z,2.60
2022-10-06T22:54:22.417Z,2.53
2022-10-06T22:56:51.758Z,2.63
2022-10-06T22:59:20.637Z,2.38
2022-10-06T23:01:49.507Z,2.58
2022-10-06T23:04:18.527Z,2.22
2022-10-06T23:06:48.831Z,2.17
2022-10-06T23:09:17.775Z,3.38
2022-10-06T23:11:46.687Z,2.83
2022-10-06T23:14:15.574Z,2.67
2022-10-06T23:16:44.502Z,2.25
2022-10-06T23:19:13.613Z,2.67
2022-10-06T23:21:42.492Z,3.10
2022-10-06T23:24:12.923Z,3.30
2022-10-06T23:26:41.823Z,2.60
2022-10-06T23:29:12.823Z,2.65
2022-10-06T23:31:41.879Z,2.58
2022-10-06T23:34:10.847Z,2.17
2022-10-06T23:36:39.763Z,3.22
2022-10-06T23:39:08.660Z,2.65
2022-10-06T23:41:38.966Z,2.30
2022-10-06T23:44:07.929Z,1.95
2022-10-06T23:46:36.833Z,2.08
2022-10-06T23:49:06.039Z,2.30
2022-10-06T23:51:35.002Z,3.47
2022-10-06T23:54:03.885Z,2.42
2022-10-06T23:56:32.823Z,3.20
2022-10-06T23:59:03.256Z,2.60
